Impacts TAF Board INFO
FOR SITUATIONAL AWARENESS. NOT TO BE USED FOR FLIGHT PLANNING PURPOSES.
IDs:

KRNH - New Richmond Muni, WI, US

Issued at 0520 UTC 18 Oct 2017
Updated at 0734 UTC 18 Oct 2017
Potential Impact None Slight Moderate High
Time<<18/20Z 18/21Z 18/22Z 18/23Z 19/00Z 19/01Z 19/02Z 19/03Z 19/04Z 19/05Z 19/06Z 19/07Z 19/08Z>>
Type PRVL PRVL PRVL PRVL PRVL PRVL PRVL PRVL PRVL PRVL
VIS >6 >6 >6 >6 >6 >6 >6 >6 >6 >6
CIG -- -- -- -- -- -- -- -- -- --
Cover SCT SCT SCT SCT FEW FEW FEW FEW FEW FEW
FltCat VFR VFR VFR VFR VFR VFR VFR VFR VFR VFR
WX -- -- -- -- -- -- -- -- -- --
WDir 260 260 260 260 280 280 280 280 280 280
WSpd 12 12 12 12 7 7 7 7 7 7
WGst -- -- -- -- -- -- -- -- -- --

Raw TAF
KRNH 180520Z 1806/1906 18005KT P6SM SKC
  FM181500 19010KT P6SM FEW250
  FM181800 22012KT P6SM SCT250
  FM182000 26012KT P6SM SCT250
  FM190000 28007KT P6SM FEW250


METAR Board
Radar Display
Forecast Discussion

FOR SITUATIONAL AWARENESS. NOT TO BE USED FOR FLIGHT PLANNING PURPOSES.